createdAt,value
2023-09-02T00:00:24.389Z,99.90
2023-09-02T00:02:51.580Z,99.90
2023-09-02T00:05:18.688Z,99.90
2023-09-02T00:07:45.577Z,99.90
2023-09-02T00:10:13.557Z,99.90
2023-09-02T00:12:40.751Z,99.90
2023-09-02T00:15:08.339Z,99.90
2023-09-02T00:17:37.026Z,99.90
2023-09-02T00:20:08.918Z,99.90
2023-09-02T00:22:36.232Z,99.90
2023-09-02T00:25:06.013Z,99.90
2023-09-02T00:27:32.953Z,99.90
2023-09-02T00:30:00.271Z,99.90
2023-09-02T00:32:27.407Z,99.90
2023-09-02T00:34:54.429Z,99.90
2023-09-02T00:37:21.505Z,99.90
2023-09-02T00:39:48.836Z,99.90
2023-09-02T00:42:18.590Z,99.90
2023-09-02T00:44:45.614Z,99.90
2023-09-02T00:47:13.535Z,99.90
2023-09-02T00:49:40.790Z,99.90
2023-09-02T00:52:08.033Z,99.90
2023-09-02T00:54:35.089Z,99.90
2023-09-02T00:57:02.133Z,99.90
2023-09-02T00:59:29.061Z,99.90
2023-09-02T01:01:59.098Z,99.90
2023-09-02T01:04:26.188Z,99.90
2023-09-02T01:06:56.502Z,99.90
2023-09-02T01:09:23.546Z,99.90
2023-09-02T01:11:50.425Z,99.90
2023-09-02T01:14:17.570Z,99.90
2023-09-02T01:16:44.598Z,99.90
2023-09-02T01:19:16.524Z,99.90
2023-09-02T01:22:19.111Z,99.90
2023-09-02T01:25:01.132Z,99.90
2023-09-02T01:27:54.930Z,99.90
2023-09-02T01:30:25.304Z,99.90
2023-09-02T01:32:54.839Z,99.90
2023-09-02T01:35:29.038Z,99.90
2023-09-02T01:37:58.676Z,99.90
2023-09-02T01:40:28.123Z,99.90
2023-09-02T01:42:58.160Z,99.90
2023-09-02T01:45:32.140Z,99.90
2023-09-02T01:47:59.830Z,99.90
2023-09-02T01:50:29.724Z,99.90
2023-09-02T01:52:57.937Z,99.90
2023-09-02T01:55:25.518Z,99.90
2023-09-02T01:57:53.568Z,99.90
2023-09-02T02:00:20.664Z,99.90
2023-09-02T02:02:51.063Z,99.90
2023-09-02T02:05:19.859Z,99.90
2023-09-02T02:07:53.835Z,99.90
2023-09-02T02:10:25.801Z,99.90
2023-09-02T02:12:52.904Z,99.90
2023-09-02T02:15:19.852Z,99.90
2023-09-02T02:17:46.924Z,99.90
2023-09-02T02:20:13.891Z,99.90
2023-09-02T02:22:40.930Z,99.90
2023-09-02T02:25:08.377Z,99.90
2023-09-02T02:27:35.931Z,99.90
2023-09-02T02:30:05.081Z,99.90
2023-09-02T02:32:31.977Z,99.90
2023-09-02T02:34:59.177Z,99.90
2023-09-02T02:37:26.604Z,99.90
2023-09-02T02:39:53.669Z,99.90
2023-09-02T02:42:22.416Z,99.90
2023-09-02T02:44:49.555Z,99.90
2023-09-02T02:47:16.886Z,99.90
2023-09-02T02:49:43.927Z,99.90
2023-09-02T02:52:10.876Z,99.90
2023-09-02T02:54:40.474Z,99.90
2023-09-02T02:57:08.049Z,99.90
2023-09-02T02:59:35.494Z,99.90
2023-09-02T03:02:02.590Z,99.90
2023-09-02T03:04:29.590Z,99.90
2023-09-02T03:06:56.865Z,99.90
2023-09-02T03:09:23.827Z,99.90
2023-09-02T03:11:50.722Z,99.90
2023-09-02T03:14:17.599Z,99.90
2023-09-02T03:16:44.526Z,99.90
2023-09-02T03:19:11.465Z,99.90
2023-09-02T03:21:38.485Z,99.90
2023-09-02T03:24:05.906Z,99.90
2023-09-02T03:26:32.967Z,99.90
2023-09-02T03:29:00.601Z,99.90
2023-09-02T03:31:27.960Z,99.90
2023-09-02T03:33:55.059Z,99.90
2023-09-02T03:36:22.199Z,99.90
2023-09-02T03:38:49.464Z,99.90
2023-09-02T03:41:18.893Z,99.90
2023-09-02T03:43:46.921Z,99.90
2023-09-02T03:46:14.701Z,99.90
2023-09-02T03:48:42.019Z,99.90
2023-09-02T03:51:13.912Z,99.90
2023-09-02T03:53:41.298Z,99.90
2023-09-02T03:56:08.550Z,99.90
2023-09-02T03:58:37.252Z,99.90
2023-09-02T04:01:04.614Z,99.90
2023-09-02T04:03:37.677Z,99.90
2023-09-02T04:06:05.845Z,99.90
2023-09-02T04:08:35.742Z,99.90
2023-09-02T04:11:06.496Z,99.90
2023-09-02T04:13:33.475Z,99.90
2023-09-02T04:16:04.437Z,99.90
2023-09-02T04:18:34.411Z,99.90
2023-09-02T04:21:02.563Z,99.90
2023-09-02T04:23:29.585Z,99.90
2023-09-02T04:25:58.167Z,99.90
2023-09-02T04:28:28.465Z,99.90
2023-09-02T04:30:59.441Z,99.90
2023-09-02T04:33:26.794Z,99.90
2023-09-02T04:35:55.486Z,99.90
2023-09-02T04:38:22.565Z,99.90
2023-09-02T04:40:49.429Z,99.90
2023-09-02T04:43:17.059Z,99.90
2023-09-02T04:45:44.356Z,99.90
2023-09-02T04:48:19.412Z,99.90
2023-09-02T04:50:55.100Z,99.90
2023-09-02T04:53:22.228Z,99.90
2023-09-02T04:55:50.106Z,99.90
2023-09-02T04:58:17.903Z,99.90
2023-09-02T05:00:45.035Z,99.90
2023-09-02T05:03:11.893Z,99.90
2023-09-02T05:05:38.908Z,99.90
2023-09-02T05:08:06.009Z,99.90
2023-09-02T05:10:32.988Z,99.90
2023-09-02T05:13:00.294Z,99.90
2023-09-02T05:15:27.307Z,99.90
2023-09-02T05:17:54.391Z,99.90
2023-09-02T05:20:21.324Z,99.90
2023-09-02T05:22:48.248Z,99.90
2023-09-02T05:25:15.192Z,99.90
2023-09-02T05:27:42.832Z,99.90
2023-09-02T05:30:10.192Z,99.90
2023-09-02T05:32:37.111Z,99.90
2023-09-02T05:35:04.298Z,99.90
2023-09-02T05:37:31.671Z,99.90
2023-09-02T05:39:58.758Z,99.90
2023-09-02T05:42:25.786Z,99.90
2023-09-02T05:44:52.980Z,99.90
2023-09-02T05:47:19.950Z,99.90
2023-09-02T05:49:47.067Z,99.90
2023-09-02T05:52:14.047Z,99.90
2023-09-02T05:54:41.260Z,99.90
2023-09-02T05:57:08.187Z,99.90
2023-09-02T05:59:35.388Z,99.90
2023-09-02T06:02:02.268Z,99.90
2023-09-02T06:04:29.316Z,99.90
2023-09-02T06:06:56.378Z,99.90
2023-09-02T06:09:27.768Z,99.90
2023-09-02T06:11:54.828Z,99.90
2023-09-02T06:14:22.094Z,99.90
2023-09-02T06:16:51.586Z,99.90
2023-09-02T06:19:18.646Z,99.90
2023-09-02T06:21:46.854Z,99.90
2023-09-02T06:24:14.042Z,99.90
2023-09-02T06:26:42.173Z,99.90
2023-09-02T06:29:09.487Z,99.90
2023-09-02T06:31:38.816Z,99.90
2023-09-02T06:34:05.807Z,99.90
2023-09-02T06:36:32.741Z,99.90
2023-09-02T06:38:59.774Z,99.90
2023-09-02T06:41:26.873Z,99.90
2023-09-02T06:43:53.847Z,99.90
2023-09-02T06:46:22.458Z,99.90
2023-09-02T06:48:50.045Z,99.90
2023-09-02T06:51:17.715Z,99.90
2023-09-02T06:53:45.330Z,99.90
2023-09-02T06:56:13.963Z,99.90
2023-09-02T06:58:42.520Z,99.90
2023-09-02T07:01:27.436Z,99.90
2023-09-02T07:03:56.889Z,99.90
2023-09-02T07:06:24.821Z,99.90
2023-09-02T07:08:51.838Z,99.90
2023-09-02T07:11:18.880Z,99.90
2023-09-02T07:13:48.588Z,99.90
2023-09-02T07:16:17.102Z,99.90
2023-09-02T07:18:44.711Z,99.90
2023-09-02T07:21:12.827Z,99.90
2023-09-02T07:23:39.790Z,99.90
2023-09-02T07:26:06.842Z,99.90
2023-09-02T07:28:35.319Z,99.90
2023-09-02T07:31:06.944Z,99.90
2023-09-02T07:33:34.426Z,99.90
2023-09-02T07:36:12.021Z,99.90
2023-09-02T07:38:41.099Z,99.90
2023-09-02T07:41:10.028Z,99.90
2023-09-02T07:43:37.704Z,99.90
2023-09-02T07:46:05.565Z,99.90
2023-09-02T07:48:32.737Z,99.90
2023-09-02T07:53:33.587Z,99.90
2023-09-02T07:56:00.520Z,99.90
2023-09-02T07:58:27.859Z,99.90
2023-09-02T08:00:58.149Z,99.90
2023-09-02T08:03:26.223Z,99.90
2023-09-02T08:05:53.437Z,99.90
2023-09-02T08:08:20.331Z,99.90
2023-09-02T08:10:47.831Z,99.90
2023-09-02T08:13:15.095Z,99.90
2023-09-02T08:15:42.308Z,99.90
2023-09-02T08:18:09.427Z,99.90
2023-09-02T08:20:37.155Z,99.90
2023-09-02T08:23:04.469Z,99.90
2023-09-02T08:25:31.441Z,99.90
2023-09-02T08:27:58.666Z,99.90
2023-09-02T08:30:25.690Z,99.90
2023-09-02T08:32:53.238Z,99.90
2023-09-02T08:35:20.249Z,99.90
2023-09-02T08:37:47.317Z,99.90
2023-09-02T08:40:15.980Z,99.90
2023-09-02T08:42:44.460Z,99.60
2023-09-02T08:45:13.246Z,99.50
2023-09-02T08:47:41.838Z,99.40
2023-09-02T08:50:12.220Z,99.60
2023-09-02T08:52:41.466Z,99.50
2023-09-02T08:55:12.461Z,99.50
2023-09-02T08:57:43.448Z,99.40
2023-09-02T09:00:10.510Z,99.30
2023-09-02T09:02:41.544Z,99.20
2023-09-02T09:05:09.895Z,99.30
2023-09-02T09:07:40.379Z,99.30
2023-09-02T09:10:12.084Z,99.60
2023-09-02T09:12:39.323Z,99.80
2023-09-02T09:15:07.806Z,99.90
2023-09-02T09:17:34.977Z,99.80
2023-09-02T09:20:02.723Z,99.70
2023-09-02T09:22:29.989Z,99.70
2023-09-02T09:24:57.882Z,99.40
2023-09-02T09:27:27.015Z,99.30
2023-09-02T09:29:54.010Z,99.30
2023-09-02T09:32:23.867Z,99.40
2023-09-02T09:34:51.721Z,99.30
2023-09-02T09:37:18.779Z,99.10
2023-09-02T09:39:52.816Z,98.90
2023-09-02T09:42:34.987Z,98.80
2023-09-02T09:45:04.179Z,98.90
2023-09-02T09:47:31.445Z,99.10
2023-09-02T09:50:17.783Z,99.10
2023-09-02T09:53:03.519Z,99.00
2023-09-02T09:55:31.432Z,98.80
2023-09-02T09:58:00.744Z,98.70
2023-09-02T10:00:29.448Z,98.60
2023-09-02T10:02:58.654Z,98.10
2023-09-02T10:09:06.685Z,98.00
2023-09-02T10:11:33.745Z,98.00
2023-09-02T10:14:01.669Z,97.90
2023-09-02T10:16:31.174Z,97.90
2023-09-02T10:18:59.659Z,98.20
2023-09-02T10:21:30.151Z,97.90
2023-09-02T10:24:03.248Z,97.80
2023-09-02T10:29:18.608Z,98.00
2023-09-02T10:31:50.222Z,98.00
2023-09-02T10:37:00.243Z,98.20
2023-09-02T10:39:45.395Z,98.10
2023-09-02T10:42:16.758Z,98.10
2023-09-02T10:44:44.939Z,98.20
2023-09-02T10:47:12.589Z,98.30
2023-09-02T10:49:40.442Z,98.10
2023-09-02T10:52:09.022Z,97.40
2023-09-02T10:55:04.995Z,96.40
2023-09-02T10:57:33.272Z,95.70
2023-09-02T11:00:16.987Z,95.30
2023-09-02T11:14:10.281Z,89.00
2023-09-02T11:16:39.698Z,85.90
2023-09-02T11:19:10.859Z,84.30
2023-09-02T11:21:41.710Z,82.60
2023-09-02T11:32:46.007Z,85.50
2023-09-02T11:35:16.360Z,85.70
2023-09-02T11:37:43.333Z,85.60
2023-09-02T11:40:21.547Z,84.80
2023-09-02T11:42:49.999Z,84.30
2023-09-02T11:45:17.767Z,83.80
2023-09-02T11:47:45.185Z,83.80
2023-09-02T11:50:14.537Z,84.40
2023-09-02T11:52:42.424Z,83.30
2023-09-02T11:55:15.382Z,81.80
2023-09-02T11:57:43.248Z,80.20
2023-09-02T12:00:19.216Z,80.20
2023-09-02T12:02:47.424Z,80.20
2023-09-02T12:05:15.486Z,80.40
2023-09-02T12:07:46.114Z,80.90
2023-09-02T12:10:15.502Z,81.30
2023-09-02T12:12:47.058Z,81.80
2023-09-02T12:15:19.595Z,81.30
2023-09-02T12:17:48.436Z,79.20
2023-09-02T12:20:16.788Z,78.10
2023-09-02T12:22:45.140Z,78.60
2023-09-02T12:25:17.211Z,79.60
2023-09-02T12:27:44.906Z,80.30
2023-09-02T12:30:13.551Z,79.50
2023-09-02T12:32:40.829Z,78.20
2023-09-02T12:35:11.916Z,77.50
2023-09-02T12:37:39.132Z,78.20
2023-09-02T12:40:11.254Z,79.10
2023-09-02T12:42:38.311Z,79.20
2023-09-02T12:45:05.917Z,79.70
2023-09-02T12:47:33.647Z,80.10
2023-09-02T12:52:56.341Z,75.50
2023-09-02T12:55:24.083Z,69.10
2023-09-02T12:57:51.097Z,66.30
2023-09-02T13:00:18.209Z,63.20
2023-09-02T13:05:30.828Z,57.00
2023-09-02T13:07:58.134Z,57.60
2023-09-02T13:10:25.108Z,55.50
2023-09-02T13:12:52.181Z,55.20
2023-09-02T13:51:01.794Z,64.00
2023-09-02T13:53:29.232Z,63.60
2023-09-02T13:55:56.576Z,62.80
2023-09-02T14:01:08.895Z,60.30
2023-09-02T14:03:39.097Z,61.50
2023-09-02T14:06:09.056Z,61.60
2023-09-02T14:08:39.157Z,62.20
2023-09-02T14:11:07.441Z,63.40
2023-09-02T14:13:40.190Z,64.00
2023-09-02T14:18:43.671Z,65.90
2023-09-02T14:21:10.692Z,65.60
2023-09-02T14:23:37.632Z,66.20
2023-09-02T14:26:05.108Z,64.80
2023-09-02T14:28:39.783Z,65.30
2023-09-02T14:45:00.043Z,66.40
2023-09-02T14:47:34.496Z,67.40
2023-09-02T14:50:01.716Z,69.10
2023-09-02T14:52:28.865Z,70.00
2023-09-02T14:54:55.939Z,70.40
2023-09-02T14:57:27.240Z,70.80
2023-09-02T14:59:57.353Z,71.20
2023-09-02T15:02:41.862Z,71.30
2023-09-02T15:05:18.295Z,71.50
2023-09-02T15:07:47.107Z,70.70
2023-09-02T15:10:31.378Z,70.70
2023-09-02T15:13:02.720Z,71.30
2023-09-02T15:15:41.743Z,72.00
2023-09-02T15:18:20.600Z,72.70
2023-09-02T15:20:50.232Z,73.00
2023-09-02T15:23:19.790Z,73.70
2023-09-02T15:25:47.325Z,73.90
2023-09-02T15:28:15.027Z,74.20
2023-09-02T15:30:42.412Z,74.00
2023-09-02T15:33:11.886Z,74.10
2023-09-02T15:35:42.210Z,74.20
2023-09-02T15:38:17.149Z,74.30
2023-09-02T15:40:46.077Z,74.50
2023-09-02T15:43:30.744Z,74.50
2023-09-02T15:46:01.041Z,74.70
2023-09-02T15:48:31.362Z,75.20
2023-09-02T15:50:58.490Z,75.10
2023-09-02T15:53:38.650Z,75.30
2023-09-02T15:56:05.866Z,75.10
2023-09-02T15:58:32.956Z,75.60
2023-09-02T16:01:00.034Z,75.60
2023-09-02T16:03:46.137Z,75.30
2023-09-02T16:06:13.150Z,76.20
2023-09-02T16:08:40.143Z,76.40
2023-09-02T16:11:07.341Z,77.10
2023-09-02T16:13:56.012Z,76.60
2023-09-02T16:16:26.122Z,76.30
2023-09-02T16:18:53.119Z,75.80
2023-09-02T16:21:20.356Z,75.30
2023-09-02T16:23:49.505Z,75.20
2023-09-02T16:26:16.668Z,75.60
2023-09-02T16:28:44.022Z,75.90
2023-09-02T16:31:13.236Z,76.10
2023-09-02T16:34:11.921Z,75.80
2023-09-02T16:36:44.241Z,77.30
2023-09-02T16:39:15.055Z,77.10
2023-09-02T16:42:02.817Z,77.80
2023-09-02T16:47:15.138Z,78.40
2023-09-02T16:49:42.603Z,78.90
2023-09-02T16:52:10.884Z,79.30
2023-09-02T16:54:45.890Z,79.80
2023-09-02T16:57:16.597Z,80.20
2023-09-02T16:59:43.710Z,80.60
2023-09-02T17:02:28.128Z,80.90
2023-09-02T17:04:55.431Z,81.30
2023-09-02T17:07:25.603Z,81.30
2023-09-02T17:09:52.918Z,81.40
2023-09-02T17:12:21.472Z,81.60
2023-09-02T17:14:49.232Z,81.70
2023-09-02T17:17:18.483Z,82.00
2023-09-02T17:19:50.384Z,82.50
2023-09-02T17:22:17.293Z,82.80
2023-09-02T17:24:50.802Z,82.70
2023-09-02T17:27:22.308Z,82.80
2023-09-02T17:30:23.258Z,82.90
2023-09-02T17:32:58.083Z,83.00
2023-09-02T17:35:31.879Z,83.00
2023-09-02T17:38:07.927Z,83.10
2023-09-02T17:40:35.153Z,83.20
2023-09-02T17:43:03.827Z,83.30
2023-09-02T17:45:31.130Z,83.40
2023-09-02T17:48:00.153Z,83.50
2023-09-02T17:50:27.472Z,83.70
2023-09-02T17:52:55.496Z,83.50
2023-09-02T17:55:23.190Z,83.80
2023-09-02T17:57:51.524Z,84.00
2023-09-02T18:00:19.633Z,84.00
2023-09-02T18:02:47.234Z,83.80
2023-09-02T18:05:17.258Z,84.00
2023-09-02T18:07:44.537Z,84.10
2023-09-02T18:10:14.289Z,84.30
2023-09-02T18:12:41.950Z,84.60
2023-09-02T18:15:10.366Z,84.80
2023-09-02T18:17:37.609Z,85.20
2023-09-02T18:20:07.088Z,85.60
2023-09-02T18:22:35.211Z,86.10
2023-09-02T18:25:04.238Z,87.10
2023-09-02T18:27:31.293Z,86.90
2023-09-02T18:30:03.629Z,87.30
2023-09-02T18:32:30.762Z,87.80
2023-09-02T18:35:00.012Z,88.10
2023-09-02T18:37:28.651Z,88.40
2023-09-02T18:39:55.889Z,88.90
2023-09-02T18:42:24.735Z,89.20
2023-09-02T18:44:52.157Z,89.80
2023-09-02T18:47:19.269Z,90.00
2023-09-02T18:49:51.205Z,90.20
2023-09-02T18:52:18.929Z,90.30
2023-09-02T18:54:45.875Z,90.50
2023-09-02T18:57:13.120Z,90.80
2023-09-02T18:59:42.996Z,91.00
2023-09-02T19:02:09.977Z,91.20
2023-09-02T19:04:38.546Z,91.40
2023-09-02T19:07:09.645Z,91.60
2023-09-02T19:09:37.616Z,92.10
2023-09-02T19:12:04.916Z,92.00
2023-09-02T19:14:32.408Z,92.20
2023-09-02T19:16:59.841Z,92.50
2023-09-02T19:19:28.723Z,92.70
2023-09-02T19:21:56.233Z,92.90
2023-09-02T19:24:23.362Z,93.10
2023-09-02T19:26:53.029Z,93.30
2023-09-02T19:29:20.571Z,93.50
2023-09-02T19:31:49.960Z,93.80
2023-09-02T19:34:20.317Z,94.10
2023-09-02T19:36:49.861Z,94.40
2023-09-02T19:39:25.278Z,94.80
2023-09-02T19:41:52.626Z,95.10
2023-09-02T19:44:22.639Z,95.30
2023-09-02T19:46:49.737Z,95.50
2023-09-02T19:49:24.848Z,95.80
2023-09-02T19:51:53.472Z,96.10
2023-09-02T19:54:38.811Z,96.30
2023-09-02T19:57:06.487Z,96.70
2023-09-02T19:59:35.490Z,96.90
2023-09-02T20:02:02.622Z,97.20
2023-09-02T20:04:29.712Z,97.60
2023-09-02T20:06:57.762Z,97.90
2023-09-02T20:09:24.763Z,98.20
2023-09-02T20:11:51.909Z,98.40
2023-09-02T20:14:18.987Z,98.70
2023-09-02T20:16:46.376Z,99.00
2023-09-02T20:19:13.811Z,99.30
2023-09-02T20:21:40.889Z,99.50
2023-09-02T20:24:10.330Z,99.60
2023-09-02T20:26:38.104Z,99.50
2023-09-02T20:29:05.368Z,99.60
2023-09-02T20:31:33.405Z,99.70
2023-09-02T20:34:00.664Z,99.90
2023-09-02T20:36:27.531Z,99.90
2023-09-02T20:38:56.183Z,99.90
2023-09-02T20:41:23.308Z,99.90
2023-09-02T20:43:50.287Z,99.90
2023-09-02T20:46:17.652Z,99.90
2023-09-02T20:48:44.814Z,99.90
2023-09-02T20:51:12.681Z,99.90
2023-09-02T20:53:41.960Z,99.90
2023-09-02T20:56:11.568Z,99.90
2023-09-02T20:58:40.373Z,99.90
2023-09-02T21:01:08.008Z,99.90
2023-09-02T21:03:34.980Z,99.90
2023-09-02T21:06:03.296Z,99.90
2023-09-02T21:08:31.226Z,99.90
2023-09-02T21:11:09.284Z,99.90
2023-09-02T21:13:36.563Z,99.90
2023-09-02T21:16:03.467Z,99.90
2023-09-02T21:18:31.296Z,99.90
2023-09-02T21:20:58.261Z,99.90
2023-09-02T21:23:28.020Z,99.90
2023-09-02T21:25:55.368Z,99.90
2023-09-02T21:28:24.715Z,99.90
2023-09-02T21:30:51.714Z,99.90
2023-09-02T21:33:18.731Z,99.90
2023-09-02T21:35:45.663Z,99.90
2023-09-02T21:38:12.787Z,99.90
2023-09-02T21:40:39.636Z,99.90
2023-09-02T21:43:06.691Z,99.90
2023-09-02T21:45:34.384Z,99.90
2023-09-02T21:48:01.673Z,99.90
2023-09-02T21:50:28.560Z,99.90
2023-09-02T21:52:55.514Z,99.90
2023-09-02T21:55:22.546Z,99.90
2023-09-02T21:57:49.663Z,99.90
2023-09-02T22:00:16.943Z,99.90
2023-09-02T22:02:43.965Z,99.90
2023-09-02T22:05:11.126Z,99.90
2023-09-02T22:07:38.089Z,99.90
2023-09-02T22:10:05.436Z,99.90
2023-09-02T22:12:32.292Z,99.90
2023-09-02T22:14:59.951Z,99.90
2023-09-02T22:17:27.069Z,99.90
2023-09-02T22:19:53.941Z,99.90
2023-09-02T22:22:20.932Z,99.90
2023-09-02T22:24:48.929Z,99.90
2023-09-02T22:27:15.828Z,99.90
2023-09-02T22:29:42.783Z,99.90
2023-09-02T22:32:09.664Z,99.90
2023-09-02T22:34:36.609Z,99.90
2023-09-02T22:37:03.732Z,99.90
2023-09-02T22:39:32.094Z,99.90
2023-09-02T22:41:59.160Z,99.90
2023-09-02T22:44:26.126Z,99.90
2023-09-02T22:46:54.526Z,99.90
2023-09-02T22:49:28.245Z,99.90
2023-09-02T22:51:55.444Z,99.90
2023-09-02T22:54:22.423Z,99.90
2023-09-02T22:56:50.145Z,99.90
2023-09-02T22:59:17.175Z,99.90
2023-09-02T23:01:44.405Z,99.90
2023-09-02T23:04:12.852Z,99.90
2023-09-02T23:06:39.905Z,99.90
2023-09-02T23:09:07.008Z,99.90
2023-09-02T23:11:34.123Z,99.90
2023-09-02T23:14:01.109Z,99.90
2023-09-02T23:16:28.134Z,99.90
2023-09-02T23:18:55.595Z,99.90
2023-09-02T23:21:23.661Z,99.90
2023-09-02T23:23:51.673Z,99.90
2023-09-02T23:26:19.585Z,99.90
2023-09-02T23:28:48.729Z,99.90
2023-09-02T23:31:18.597Z,99.90
2023-09-02T23:33:46.181Z,99.90
2023-09-02T23:36:13.185Z,99.90
2023-09-02T23:38:40.761Z,99.90
2023-09-02T23:41:07.719Z,99.90
2023-09-02T23:43:34.819Z,99.90
2023-09-02T23:46:02.166Z,99.90
2023-09-02T23:48:29.292Z,99.90
2023-09-02T23:50:59.815Z,99.90
2023-09-02T23:53:27.185Z,99.90
2023-09-02T23:55:54.561Z,99.90
2023-09-02T23:58:21.757Z,99.90
